Latest Weather Observations for St Lawrence

IDQ60801

Issued at 8:32 pm EST Sunday 1 March 2015 (issued every 30 minutes, with the page automatically refreshed every 10 minutes)

About weather observations | Map of weather stations | Latest weather observations for QLD | Other Formats
Station Details ID: 033210 Name: ST LAWRENCE Lat: -22.35 Lon: 149.52 Height: 9.19 m
Data from the previous 72 hours. | See also: Recent months at St Lawrence
Date/Time
EST
Temp
°C
App
Temp
°C
Dew
Point
Rel
Hum
%
Delta-T
°C
Wind Press
QNH
hPa
Press
MSL
hPa
Rain
since 9 am
mm
Dir
 
Spd
km/h
Gust
km/h
Spd
kts
Gust
kts
01/08:30pm 27.5 29.1 22.2 73 3.6 NE 17 24 9 13 1008.9 1008.8 0.0
01/08:00pm 27.5 29.0 22.0 72 3.7 NE 17 24 9 13 1008.5 1008.4 0.0
01/07:30pm 27.4 29.1 22.3 73 3.4 NE 17 24 9 13 1008.2 1008.1 0.0
01/07:00pm 27.6 29.0 22.5 74 3.5 NNE 19 26 10 14 1007.7 1007.6 0.0
01/06:30pm 27.9 29.3 22.6 73 3.6 NNE 19 24 10 13 1007.4 1007.3 0.0
01/06:00pm 28.5 29.5 21.8 67 4.5 NE 19 28 10 15 1007.0 1006.9 0.0
01/05:30pm 30.0 31.8 21.9 62 5.5 NE 15 19 8 10 1006.6 1006.5 0.0
01/05:00pm 30.6 32.2 22.2 61 5.7 NE 17 20 9 11 1006.5 1006.4 0.0
01/04:30pm 30.9 32.5 21.4 57 6.4 NE 15 19 8 10 1006.6 1006.5 0.0
01/04:00pm 31.9 33.9 22.3 56 6.6 NE 15 20 8 11 1006.4 1006.3 0.0
01/03:30pm 31.6 33.5 21.4 54 6.9 NE 13 20 7 11 1006.5 1006.4 0.0
01/03:00pm 31.4 32.6 20.7 53 7.1 NNE 15 20 8 11 1006.8 1006.7 0.0
01/02:30pm 31.6 32.6 20.2 50 7.6 NE 15 19 8 10 1006.9 1006.8 0.0
01/02:00pm 31.7 32.9 20.0 50 7.7 NE 13 20 7 11 1007.3 1007.2 0.0
01/01:30pm 31.2 31.5 19.5 49 7.7 NNE 17 22 9 12 1007.7 1007.6 0.0
01/01:00pm 31.7 33.5 21.2 53 7.1 NNE 13 24 7 13 1008.0 1007.9 0.0
01/12:30pm 30.8 32.3 19.8 52 7.2 NNE 11 19 6 10 1008.6 1008.5 0.0
01/12:00pm 30.8 32.2 19.5 51 7.4 NE 11 17 6 9 1009.1 1009.0 0.0
01/11:30am 30.5 31.0 20.1 53 6.9 NNE 17 20 9 11 1009.5 1009.4 0.0
01/11:00am 30.2 33.0 21.6 60 5.8 NNE 9 17 5 9 1009.8 1009.7 0.0
01/10:30am 29.9 32.3 21.6 61 5.6 NE 11 17 6 9 1010.0 1009.9 0.0
01/10:00am 29.7 32.1 21.6 61 5.4 NNE 11 17 6 9 1010.3 1010.2 0.0
01/09:30am 29.3 31.8 21.8 64 5.0 NNE 11 17 6 9 1010.1 1010.0 0.0
01/09:00am 27.6 31.2 22.1 72 3.7 N 6 11 3 6 1010.1 1010.0 0.0
01/08:30am 27.0 30.7 23.3 80 2.5 WNW 9 13 5 7 1010.0 1009.9 0.0
01/08:00am 26.8 31.0 23.1 80 2.5 SSE 6 9 3 5 1009.7 1009.6 0.0
01/07:30am 26.1 29.7 23.0 83 2.1 SSE 9 11 5 6 1009.4 1009.3 0.0
01/07:00am 25.3 29.1 22.8 86 1.7 SSE 7 11 4 6 1009.1 1009.0 0.0
01/06:30am 24.3 27.8 22.2 88 1.4 S 7 7 4 4 1008.6 1008.5 0.0
01/06:00am 23.7 27.5 21.6 88 1.4 WSW 4 7 2 4 1008.4 1008.3 0.0
01/05:30am 24.3 29.0 22.0 87 1.5 CALM 0 0 0 0 1008.0 1007.9 0.0
01/05:00am 24.7 28.8 22.2 86 1.7 E 4 7 2 4 1007.7 1007.6 0.0
01/04:30am 24.7 28.6 21.8 84 1.9 E 4 6 2 3 1007.5 1007.4 0.0
01/04:00am 25.3 28.7 21.6 80 2.5 ENE 6 7 3 4 1007.5 1007.4 0.0
01/03:30am 25.8 28.9 22.1 80 2.5 NE 9 11 5 6 1007.5 1007.4 0.0
01/03:00am 26.1 29.1 22.0 78 2.7 NE 9 15 5 8 1007.6 1007.5 0.0
01/02:30am 26.1 29.2 22.2 79 2.6 NE 9 15 5 8 1007.7 1007.6 0.0
01/02:00am 26.5 29.7 22.3 78 2.8 ENE 9 15 5 8 1008.1 1008.0 0.0
01/01:30am 26.6 30.2 22.4 78 2.8 ENE 7 11 4 6 1008.7 1008.6 0.0
01/01:00am 27.0 30.2 22.4 76 3.1 NE 9 15 5 8 1008.9 1008.8 0.0
01/12:30am 27.1 30.3 22.3 75 3.2 NNE 9 15 5 8 1009.1 1009.0 0.0
01/12:00am 26.9 29.2 22.1 75 3.2 NE 13 17 7 9 1009.3 1009.2 0.0
 
Date/Time
EST
Temp
°C
App
Temp
°C
Dew
Point
Rel
Hum
%
Delta-T
°C
Wind Press
QNH
hPa
Press
MSL
hPa
Rain
since 9 am
mm
Dir
 
Spd
km/h
Gust
km/h
Spd
kts
Gust
kts
28/11:30pm 27.1 29.8 22.1 74 3.4 NE 11 15 6 8 1009.4 1009.3 0.0
28/11:00pm 27.0 29.9 22.4 76 3.1 NE 11 19 6 10 1009.5 1009.4 0.0
28/10:30pm 27.0 29.4 22.2 75 3.2 NE 13 19 7 10 1009.6 1009.5 0.0
28/10:00pm 27.2 29.0 21.9 73 3.6 NE 15 24 8 13 1009.6 1009.5 0.0
28/09:30pm 27.2 28.9 21.7 72 3.7 NE 15 22 8 12 1009.7 1009.6 0.0
28/09:00pm 27.3 29.2 22.0 73 3.6 NE 15 20 8 11 1009.4 1009.3 0.0
28/08:30pm 27.5 29.3 21.8 71 3.8 NE 15 22 8 12 1009.2 1009.1 0.0
28/08:00pm 27.5 29.1 22.2 73 3.6 NE 17 26 9 14 1008.5 1008.4 0.0
28/07:30pm 27.6 28.9 22.3 73 3.6 NNE 19 26 10 14 1008.4 1008.3 0.0
28/07:00pm 27.5 29.1 22.9 76 3.1 NE 19 28 10 15 1007.9 1007.8 0.0
28/06:30pm 27.8 29.3 23.0 75 3.3 NNE 20 28 11 15 1007.6 1007.5 0.0
28/06:00pm 28.0 28.4 22.5 72 3.7 NNE 24 32 13 17 1007.3 1007.2 0.0
28/05:30pm 28.7 28.5 22.0 67 4.5 NNE 26 35 14 19 1006.9 1006.8 0.0
28/05:00pm 29.4 29.6 21.4 62 5.4 NNE 22 32 12 17 1006.7 1006.6 0.0
28/04:30pm 30.2 30.6 21.0 58 6.1 NNE 20 28 11 15 1006.6 1006.5 0.0
28/04:00pm 30.7 31.7 21.8 59 6.0 NNE 19 26 10 14 1006.3 1006.2 0.0
28/03:30pm 31.2 32.8 22.8 61 5.8 NNE 19 24 10 13 1006.1 1006.0 0.0
28/03:00pm 31.2 32.6 21.9 57 6.3 NE 17 22 9 12 1006.3 1006.2 0.0
28/02:30pm 31.2 32.9 21.7 57 6.4 ENE 15 28 8 15 1006.3 1006.2 0.0
28/02:00pm 31.2 32.5 20.2 52 7.3 NE 13 20 7 11 1006.7 1006.6 0.0
28/01:30pm 31.5 32.0 20.1 50 7.5 NNE 17 22 9 12 1007.1 1007.0 0.0
28/01:00pm 31.6 32.5 20.8 52 7.2 NNE 17 22 9 12 1007.5 1007.4 0.0
28/12:30pm 31.0 32.4 20.3 53 7.1 NE 13 22 7 12 1008.0 1007.9 0.0
28/12:00pm 31.2 33.1 20.5 53 7.1 NE 11 19 6 10 1008.5 1008.4 0.0
28/11:30am 30.5 31.8 20.1 53 6.9 NNE 13 19 7 10 1008.9 1008.8 0.0
28/11:00am 30.2 32.4 20.4 55 6.5 N 9 17 5 9 1009.3 1009.2 0.0
28/10:30am 29.4 31.4 20.8 60 5.7 NNE 11 15 6 8 1009.5 1009.4 0.0
28/10:00am 29.3 32.1 21.5 63 5.2 NNE 9 13 5 7 1009.7 1009.6 0.0
28/09:30am 28.8 31.5 20.3 60 5.6 NE 6 9 3 5 1009.7 1009.6 0.0
28/09:00am 29.0 32.2 21.7 64 4.9 NE 7 11 4 6 1009.6 1009.5 0.0
28/08:30am 27.6 31.0 20.9 67 4.4 SSW 4 9 2 5 1009.4 1009.3 0.0
28/08:00am 26.8 30.2 22.0 75 3.2 S 7 9 4 5 1009.1 1009.0 0.0
28/07:30am 25.0 29.0 22.1 84 1.9 WSW 4 6 2 3 1008.9 1008.8 0.0
28/07:00am 23.7 27.2 21.8 89 1.3 SW 6 7 3 4 1008.6 1008.5 0.0
28/06:30am 23.2 27.3 21.6 91 1.1 SSW 2 7 1 4 1008.3 1008.2 0.0
28/06:00am 23.2 27.3 21.5 90 1.1 SW 2 6 1 3 1007.7 1007.6 0.0
28/05:30am 23.4 26.8 21.7 90 1.1 SW 6 7 3 4 1007.6 1007.5 0.0
28/05:00am 24.0 28.2 21.7 87 1.5 WSW 2 7 1 4 1007.5 1007.4 0.0
28/04:30am 24.3 28.8 21.6 85 1.8 CALM 0 0 0 0 1007.7 1007.6 0.0
28/04:00am 24.7 29.1 21.4 82 2.2 CALM 0 6 0 3 1007.8 1007.7 0.0
28/03:30am 25.1 28.3 21.2 79 2.6 NW 6 9 3 5 1007.5 1007.4 0.0
28/03:00am 25.6 28.9 21.5 78 2.7 NE 6 7 3 4 1007.4 1007.3 0.0
28/02:30am 26.2 28.0 21.2 74 3.3 NNE 13 19 7 10 1007.3 1007.2 0.0
28/02:00am 26.1 28.4 21.3 75 3.2 NNE 11 13 6 7 1007.3 1007.2 0.0
28/01:30am 26.1 29.3 21.7 77 2.9 NNE 7 11 4 6 1007.9 1007.8 0.0
28/01:00am 26.4 28.6 21.2 73 3.4 NNE 11 15 6 8 1008.0 1007.9 0.0
28/12:30am 26.3 28.8 21.7 76 3.1 NE 11 17 6 9 1008.1 1008.0 0.0
28/12:00am 26.6 28.6 21.6 74 3.3 NNE 13 17 7 9 1008.3 1008.2 0.0
 
Date/Time
EST
Temp
°C
App
Temp
°C
Dew
Point
Rel
Hum
%
Delta-T
°C
Wind Press
QNH
hPa
Press
MSL
hPa
Rain
since 9 am
mm
Dir
 
Spd
km/h
Gust
km/h
Spd
kts
Gust
kts
27/11:30pm 26.8 28.7 21.3 72 3.7 NNE 13 19 7 10 1008.3 1008.2 0.0
27/11:00pm 26.6 28.5 21.4 73 3.5 NE 13 17 7 9 1008.5 1008.4 0.0
27/10:30pm 26.8 28.7 21.3 72 3.7 NNE 13 19 7 10 1008.4 1008.3 0.0
27/10:00pm 26.9 28.5 21.4 72 3.7 NNE 15 19 8 10 1008.3 1008.2 0.0
27/09:30pm 27.0 28.9 22.0 74 3.4 NNE 15 20 8 11 1008.0 1007.9 0.0
27/09:00pm 26.7 28.6 22.1 76 3.1 NE 15 20 8 11 1007.4 1007.3 0.0
27/08:30pm 27.0 28.7 21.7 73 3.5 NE 15 22 8 12 1007.1 1007.0 0.0
27/08:00pm 26.9 28.5 21.4 72 3.7 NE 15 20 8 11 1007.0 1006.9 0.0
27/07:30pm 27.3 29.1 21.8 72 3.7 NNE 15 20 8 11 1007.0 1006.9 0.0
27/07:00pm 27.3 28.3 21.8 72 3.7 NNE 19 28 10 15 1006.4 1006.3 0.0
27/06:30pm 27.4 28.4 21.7 71 3.8 NE 19 26 10 14 1005.9 1005.8 0.0
27/06:00pm 27.7 28.9 22.2 72 3.7 NNE 19 24 10 13 1005.8 1005.7 0.0
27/05:30pm 28.2 29.2 22.2 70 4.0 NNE 20 28 11 15 1005.7 1005.6 0.0
27/05:00pm 28.6 28.9 21.6 66 4.7 NNE 22 32 12 17 1005.1 1005.0 0.0
27/04:30pm 29.5 30.1 21.4 61 5.4 NNE 20 28 11 15 1004.8 1004.7 0.0
27/04:00pm 30.5 31.8 22.4 62 5.5 NNE 19 26 10 14 1005.1 1005.0 0.0
27/03:30pm 30.4 31.5 22.0 60 5.7 NNE 19 28 10 15 1005.2 1005.1 0.0
27/03:00pm 31.5 33.3 22.5 59 6.2 NE 17 24 9 13 1005.3 1005.2 0.0
27/02:30pm 31.6 32.9 21.7 55 6.7 NE 17 22 9 12 1005.6 1005.5 0.0
27/02:00pm 31.8 33.6 21.9 55 6.7 NNE 15 22 8 12 1005.9 1005.8 0.0
27/01:30pm 31.5 33.2 21.7 56 6.6 NE 15 22 8 12 1006.1 1006.0 0.0
27/01:00pm 31.5 33.6 20.1 50 7.6 NE 9 15 5 8 1006.6 1006.5 0.0
27/12:30pm 30.9 32.9 20.8 55 6.7 NNE 11 19 6 10 1006.9 1006.8 0.0
27/12:00pm 30.7 32.7 21.5 58 6.2 NE 13 24 7 13 1007.2 1007.1 0.0
27/11:30am 31.0 33.4 21.5 57 6.4 NNE 11 17 6 9 1007.6 1007.5 0.0
27/11:00am 30.2 32.9 20.7 56 6.3 NNE 7 13 4 7 1008.2 1008.1 0.0
27/10:30am 29.9 32.1 20.5 57 6.2 N 9 13 5 7 1008.5 1008.4 0.0
27/10:00am 29.7 33.0 21.4 61 5.6 NE 6 9 3 5 1008.6 1008.5 0.0
27/09:30am 28.7 31.6 20.7 62 5.3 NNE 6 9 3 5 1008.8 1008.7 0.0
27/09:00am 28.5 31.9 22.0 68 4.4 NNW 7 11 4 6 1008.7 1008.6 -
27/08:30am 27.6 32.1 21.6 70 4.0 CALM 0 6 0 3 1008.4 1008.3 -
27/08:00am 26.8 31.0 22.4 77 3.0 SSW 4 7 2 4 1008.1 1008.0 -
27/07:30am 25.6 29.5 22.9 85 1.8 WSW 7 9 4 5 1007.9 1007.8 -
27/07:00am 24.8 28.6 22.7 88 1.4 WSW 7 9 4 5 1007.9 1007.8 -
27/06:30am 24.9 28.8 22.6 87 1.5 WSW 6 7 3 4 1007.6 1007.5 -
27/06:00am 24.9 29.5 21.8 83 2.1 CALM 0 0 0 0 1007.3 1007.2 -
27/05:30am 25.7 28.6 21.8 79 2.6 NNE 9 13 5 7 1006.8 1006.7 -
27/05:00am 25.6 29.0 21.7 79 2.6 N 6 7 3 4 1006.7 1006.6 -
27/04:30am 25.9 28.9 21.3 76 3.0 NE 7 9 4 5 1006.3 1006.2 -
27/04:00am 25.7 28.6 21.8 79 2.6 NE 9 11 5 6 1006.1 1006.0 -
27/03:30am 25.4 28.5 21.5 79 2.6 NNE 7 11 4 6 1006.1 1006.0 -
27/03:00am 25.5 28.8 21.8 80 2.5 NE 7 11 4 6 1006.2 1006.1 0.0
27/02:30am 25.6 28.4 21.5 78 2.7 NE 9 11 5 6 1006.5 1006.4 -
27/02:00am 25.6 28.9 21.9 80 2.5 NE 7 13 4 7 1006.6 1006.5 -
27/01:30am 25.7 28.9 21.6 78 2.7 NE 7 11 4 6 1006.9 1006.8 -
27/01:00am 26.0 28.9 21.7 77 2.9 NE 9 13 5 7 1007.0 1006.9 -
27/12:30am 26.1 29.0 21.7 77 2.9 NE 9 15 5 8 1007.3 1007.2 -
27/12:00am 26.0 29.2 21.7 77 2.9 NE 7 11 4 6 1007.8 1007.7 -
 
Date/Time
EST
Temp
°C
App
Temp
°C
Dew
Point
Rel
Hum
%
Delta-T
°C
Wind Press
QNH
hPa
Press
MSL
hPa
Rain
since 9 am
mm
Dir
 
Spd
km/h
Gust
km/h
Spd
kts
Gust
kts
26/11:30pm 26.2 29.0 21.6 76 3.1 ENE 9 15 5 8 1007.9 1007.8 -
26/11:00pm 26.1 29.3 21.7 77 2.9 ENE 7 11 4 6 1008.0 1007.9 -
26/10:30pm 26.3 28.4 21.7 76 3.1 NE 13 17 7 9 1008.0 1007.9 -
26/10:00pm 26.4 28.8 21.6 75 3.2 NE 11 19 6 10 1008.2 1008.1 -
26/09:30pm 26.8 28.6 21.8 74 3.3 NE 15 20 8 11 1008.0 1007.9 -
26/09:00pm 26.7 28.0 21.7 74 3.3 NE 17 24 9 13 1007.7 1007.6 0.0

Other Formats:

Comma delimited format used in spreadsheet applications
http://www.bom.gov.au/fwo/IDQ60801/IDQ60801.95369.axf

JavaScript Object Notation format (JSON) in row-major order
http://www.bom.gov.au/fwo/IDQ60801/IDQ60801.95369.json